Time;durP1;ratioP1;P1;durP2;ratioP2;P2;SDS_P1;SDS_P2;PMS_P1;PMS_P2;Temp;Humidity;BMP_temperature;BMP_pressure;BME280_temperature;BME280_humidity;BME280_pressure;Samples;Min_cycle;Max_cycle;Signal;HPM_P1;HPM_P2
2022/10/06 00:00:32;;;;;;;2.47;2.13;;;;;;;8.53;100.00;62880.16;4970133;29;20212;-74
2022/10/06 00:02:59;;;;;;;2.42;2.22;;;;;;;8.48;100.00;62869.94;4959297;28;20280;-75
2022/10/06 00:05:25;;;;;;;2.42;2.20;;;;;;;8.46;100.00;62878.53;4946492;29;20224;-75
2022/10/06 00:07:53;;;;;;;2.25;2.15;;;;;;;8.48;100.00;62875.53;4965143;29;20540;-75
2022/10/06 00:10:19;;;;;;;2.45;1.90;;;;;;;8.42;100.00;62868.81;4956196;29;20201;-74
2022/10/06 00:12:48;;;;;;;1.77;1.67;;;;;;;8.37;100.00;62863.66;4965604;28;20224;-75
2022/10/06 00:15:20;;;;;;;2.00;1.85;;;;;;;8.32;100.00;62861.53;4959336;29;20256;-75
2022/10/06 00:17:47;;;;;;;2.72;2.58;;;;;;;8.29;100.00;62855.91;4966725;28;20233;-75
2022/10/06 00:20:14;;;;;;;1.85;1.75;;;;;;;8.27;100.00;62851.28;4968304;29;20216;-74
2022/10/06 00:22:42;;;;;;;5.40;2.33;;;;;;;8.17;100.00;62844.00;4970356;29;20414;-74
2022/10/06 00:25:11;;;;;;;1.88;1.77;;;;;;;8.20;100.00;62842.03;4951760;29;20250;-74
2022/10/06 00:27:40;;;;;;;2.05;1.92;;;;;;;8.16;100.00;62837.88;4950997;29;20261;-73
2022/10/06 00:30:10;;;;;;;1.90;1.80;;;;;;;8.14;100.00;62835.81;4963832;29;20223;-75
2022/10/06 00:32:39;;;;;;;1.52;1.52;;;;;;;8.08;100.00;62832.16;4961543;28;20232;-75
2022/10/06 00:35:08;;;;;;;1.95;1.70;;;;;;;8.11;100.00;62835.25;4950923;29;20209;-74
2022/10/06 00:37:36;;;;;;;1.90;1.80;;;;;;;8.08;100.00;62832.16;4965734;28;20224;-74
2022/10/06 00:40:08;;;;;;;1.42;1.42;;;;;;;8.11;100.00;62834.75;4970756;29;20209;-74
2022/10/06 00:42:48;;;;;;;2.38;2.20;;;;;;;8.06;100.00;62832.63;4969100;28;20224;-74
2022/10/06 00:45:16;;;;;;;1.95;1.85;;;;;;;8.08;100.00;62831.66;4969425;29;20243;-74
2022/10/06 00:47:45;;;;;;;1.90;1.80;;;;;;;8.12;100.00;62835.78;4969609;28;20224;-74
2022/10/06 00:50:14;;;;;;;2.03;1.92;;;;;;;8.07;100.00;62830.63;4966356;29;20200;-73
2022/10/06 00:52:41;;;;;;;1.80;1.70;;;;;;;8.03;100.00;62827.00;4968785;29;20225;-74
2022/10/06 00:55:09;;;;;;;2.08;1.98;;;;;;;8.03;100.00;62827.00;4968276;29;20205;-75
2022/10/06 00:57:37;;;;;;;1.70;1.60;;;;;;;8.03;100.00;62829.03;4970260;28;20259;-73
2022/10/06 01:00:05;;;;;;;2.00;1.90;;;;;;;8.01;100.00;62824.41;4966637;29;20268;-74
2022/10/06 01:02:37;;;;;;;2.08;2.00;;;;;;;7.95;100.00;62821.28;4969093;28;20225;-74
2022/10/06 01:05:09;;;;;;;1.77;1.67;;;;;;;7.90;100.00;62813.06;4966100;29;20233;-74
2022/10/06 01:07:36;;;;;;;2.53;1.63;;;;;;;7.87;100.00;62810.47;4967972;29;20216;-74
2022/10/06 01:10:03;;;;;;;1.98;1.88;;;;;;;7.84;100.00;62812.47;4965710;29;20205;-74
2022/10/06 01:12:32;;;;;;;2.22;2.13;;;;;;;7.81;100.00;62803.78;4969739;28;20217;-75
2022/10/06 01:14:59;;;;;;;2.30;2.20;;;;;;;7.80;100.00;62805.28;4967883;29;20224;-75
2022/10/06 01:17:31;;;;;;;5.22;2.42;;;;;;;7.77;100.00;62800.16;4965728;29;20244;-75
2022/10/06 01:20:00;;;;;;;2.67;2.33;;;;;;;7.75;100.00;62797.56;4969085;29;20228;-75
2022/10/06 01:22:30;;;;;;;3.17;2.33;;;;;;;7.74;100.00;62794.00;4967181;28;20213;-74
2022/10/06 01:24:57;;;;;;;2.60;2.40;;;;;;;7.72;100.00;62792.47;4960354;29;20587;-75
2022/10/06 01:27:26;;;;;;;2.85;2.70;;;;;;;7.73;100.00;62793.50;4965551;29;20533;-74
2022/10/06 01:29:54;;;;;;;2.40;2.30;;;;;;;7.76;100.00;62796.09;4967552;28;20204;-75
2022/10/06 01:32:22;;;;;;;2.17;1.98;;;;;;;7.78;100.00;62800.69;4965698;28;20248;-75
2022/10/06 01:34:49;;;;;;;2.40;2.03;;;;;;;7.76;100.00;62798.63;4967017;29;20204;-74
2022/10/06 01:37:16;;;;;;;2.22;2.13;;;;;;;7.77;100.00;62799.63;4964691;28;20220;-75
2022/10/06 01:39:45;;;;;;;2.33;2.13;;;;;;;7.75;100.00;62793.03;4968503;29;20197;-75
2022/10/06 01:42:12;;;;;;;2.08;1.98;;;;;;;7.74;100.00;62799.59;4968622;29;20241;-74
2022/10/06 01:44:38;;;;;;;2.38;2.10;;;;;;;7.75;100.00;62800.09;4966846;29;20252;-74
2022/10/06 01:47:06;;;;;;;2.00;1.90;;;;;;;7.69;100.00;62791.91;4948644;29;20297;-75
2022/10/06 01:49:34;;;;;;;1.88;1.77;;;;;;;7.73;100.00;62796.03;4949990;29;20455;-75
2022/10/06 01:52:01;;;;;;;1.98;1.80;;;;;;;7.64;100.00;62786.22;4968638;28;20504;-75
2022/10/06 01:54:28;;;;;;;2.20;2.10;;;;;;;7.72;100.00;62797.00;4965918;29;20428;-74
2022/10/06 01:56:56;;;;;;;2.33;2.13;;;;;;;7.71;100.00;62793.97;4967642;28;20256;-74
2022/10/06 01:59:23;;;;;;;2.20;2.10;;;;;;;7.67;100.00;62792.38;4966437;29;20242;-75
2022/10/06 02:01:50;;;;;;;3.22;2.17;;;;;;;7.69;100.00;62793.91;4967289;28;20208;-75
2022/10/06 02:04:17;;;;;;;2.85;2.25;;;;;;;7.69;100.00;62793.91;4963396;29;20213;-75
2022/10/06 02:06:44;;;;;;;2.25;2.05;;;;;;;7.72;100.00;62794.47;4967952;29;20233;-74
2022/10/06 02:09:11;;;;;;;2.22;2.13;;;;;;;7.72;100.00;62794.47;4966871;29;20204;-75
2022/10/06 02:11:38;;;;;;;1.65;1.60;;;;;;;7.74;100.00;62797.06;4964682;29;20208;-74
2022/10/06 02:14:06;;;;;;;1.88;1.73;;;;;;;7.74;100.00;62799.09;4966320;29;20251;-74
2022/10/06 02:16:34;;;;;;;4.20;1.92;;;;;;;7.73;100.00;62798.56;4968073;29;20196;-74
2022/10/06 02:19:01;;;;;;;2.38;1.83;;;;;;;7.70;100.00;62790.41;4965262;29;20213;-74
2022/10/06 02:21:28;;;;;;;3.50;1.92;;;;;;;7.71;100.00;62791.44;4960784;29;20272;-75
2022/10/06 02:23:54;;;;;;;2.38;2.28;;;;;;;7.67;100.00;62789.31;4948289;29;20245;-75
2022/10/06 02:26:21;;;;;;;2.00;1.90;;;;;;;7.66;100.00;62786.25;4960571;29;20237;-74
2022/10/06 02:28:48;;;;;;;2.25;2.05;;;;;;;7.60;100.00;62784.63;4968103;28;20216;-75
2022/10/06 02:31:17;;;;;;;3.13;2.08;;;;;;;7.67;100.00;62789.84;4965052;29;20228;-74
2022/10/06 02:33:44;;;;;;;2.15;1.92;;;;;;;7.72;100.00;62797.53;4967120;29;20221;-74
2022/10/06 02:36:14;;;;;;;2.00;1.90;;;;;;;7.68;100.00;62790.38;4964538;29;20207;-76
2022/10/06 02:38:41;;;;;;;1.80;1.70;;;;;;;7.68;100.00;62787.84;4964661;28;20224;-75
2022/10/06 02:41:09;;;;;;;2.25;2.15;;;;;;;7.66;100.00;62786.25;4952372;29;20248;-75
2022/10/06 02:43:36;;;;;;;2.13;1.92;;;;;;;7.61;100.00;62783.63;4949715;29;20238;-74
2022/10/06 02:46:06;;;;;;;2.17;2.08;;;;;;;7.57;100.00;62779.53;4965748;29;20250;-74
2022/10/06 02:48:34;;;;;;;2.47;2.38;;;;;;;7.55;100.00;62776.94;4962152;28;20228;-75
2022/10/06 02:51:05;;;;;;;2.53;2.33;;;;;;;7.52;100.00;62771.84;4949942;29;20217;-75
2022/10/06 02:53:33;;;;;;;1.70;1.60;;;;;;;7.50;100.00;62772.28;4947174;29;20227;-75
2022/10/06 02:56:01;;;;;;;1.77;1.67;;;;;;;7.50;100.00;62774.31;4968223;29;20239;-74
2022/10/06 02:58:29;;;;;;;2.05;1.90;;;;;;;7.47;100.00;62768.69;4960948;29;20248;-75
2022/10/06 03:01:00;;;;;;;1.90;1.80;;;;;;;7.41;100.00;62765.53;4966353;29;20248;-75
2022/10/06 03:03:27;;;;;;;2.13;1.98;;;;;;;7.47;100.00;62769.19;4965542;29;20469;-75
2022/10/06 03:06:00;;;;;;;4.88;1.95;;;;;;;7.53;100.00;62772.34;4963599;29;20232;-75
2022/10/06 03:08:27;;;;;;;1.85;1.75;;;;;;;7.54;100.00;62776.41;4962097;28;20456;-74
2022/10/06 03:11:00;;;;;;;3.47;1.60;;;;;;;7.61;100.00;62785.66;4967871;29;20213;-74
2022/10/06 03:13:27;;;;;;;3.83;1.60;;;;;;;7.58;100.00;62782.56;4963457;28;20470;-74
2022/10/06 03:15:54;;;;;;;1.48;1.38;;;;;;;7.59;100.00;62783.59;4957705;29;20399;-75
2022/10/06 03:18:21;;;;;;;1.60;1.50;;;;;;;7.55;100.00;62779.47;4946889;29;20225;-74
2022/10/06 03:20:48;;;;;;;1.55;1.55;;;;;;;7.54;100.00;62778.94;4953819;29;20239;-75
2022/10/06 03:23:16;;;;;;;1.85;1.75;;;;;;;7.53;100.00;62777.91;4966551;28;20224;-74
2022/10/06 03:25:43;;;;;;;1.70;1.60;;;;;;;7.50;100.00;62772.28;4961692;29;20236;-73
2022/10/06 03:28:09;;;;;;;3.08;1.75;;;;;;;7.53;100.00;62774.88;4968797;29;20220;-75
2022/10/06 03:30:36;;;;;;;1.63;1.52;;;;;;;7.44;100.00;62768.63;4965582;29;20560;-75
2022/10/06 03:33:03;;;;;;;3.65;1.83;;;;;;;7.41;100.00;62762.47;4965097;28;20267;-75
2022/10/06 03:35:30;;;;;;;1.77;1.67;;;;;;;7.46;100.00;62767.63;4961030;29;20204;-75
2022/10/06 03:37:59;;;;;;;1.60;1.60;;;;;;;7.50;100.00;62772.28;4965979;29;20220;-76
2022/10/06 03:40:27;;;;;;;1.77;1.67;;;;;;;7.38;100.00;62759.91;4964152;29;20281;-76
2022/10/06 03:42:54;;;;;;;1.95;1.67;;;;;;;7.40;100.00;62761.97;4960464;28;20233;-75
2022/10/06 03:45:21;;;;;;;1.95;1.77;;;;;;;7.33;100.00;62752.22;4968131;29;20577;-75
2022/10/06 03:47:48;;;;;;;1.80;1.70;;;;;;;7.39;100.00;62757.88;4962257;29;20249;-74
2022/10/06 03:50:16;;;;;;;1.60;1.52;;;;;;;7.43;100.00;62764.56;4966917;29;20196;-74
2022/10/06 03:52:43;;;;;;;2.05;1.80;;;;;;;7.42;100.00;62761.50;4958670;28;20225;-75
2022/10/06 03:55:09;;;;;;;2.10;2.00;;;;;;;7.33;100.00;62751.69;4959784;29;20224;-75
2022/10/06 03:57:38;;;;;;;1.60;1.50;;;;;;;7.31;100.00;62752.69;4963466;28;20224;-75
2022/10/06 04:00:05;;;;;;;1.65;1.58;;;;;;;7.19;100.00;62742.31;4966757;29;20212;-75
2022/10/06 04:02:32;;;;;;;1.80;1.70;;;;;;;7.23;100.00;62746.94;4961945;28;20260;-77
2022/10/06 04:04:59;;;;;;;2.22;2.00;;;;;;;7.19;100.00;62740.31;4961974;29;20203;-77
2022/10/06 04:07:27;;;;;;;2.33;2.10;;;;;;;7.20;100.00;62738.78;4967106;28;20236;-79
2022/10/06 04:09:55;;;;;;;2.45;1.63;;;;;;;7.14;100.00;62735.16;4968190;29;20227;-78
2022/10/06 04:12:22;;;;;;;1.90;1.80;;;;;;;7.12;100.00;62735.63;4968567;29;20537;-78
2022/10/06 04:14:51;;;;;;;2.90;2.60;;;;;;;7.11;100.00;62731.53;4966634;29;20204;-77
2022/10/06 04:17:19;;;;;;;3.70;3.20;;;;;;;7.07;100.00;62732.97;4968297;28;20224;-79
2022/10/06 04:19:46;;;;;;;4.72;3.40;;;;;;;7.10;100.00;62730.50;4962706;29;20213;-75
2022/10/06 04:22:13;;;;;;;3.80;2.53;;;;;;;7.09;100.00;62732.00;4966178;28;20216;-77
2022/10/06 04:24:43;;;;;;;4.55;3.25;;;;;;;7.04;100.00;62725.34;4965454;29;20280;-76
2022/10/06 04:27:27;;;;;;;4.40;4.00;;;;;;;7.02;100.00;62725.81;4967539;29;20288;-77
2022/10/06 04:29:57;;;;;;;3.10;2.90;;;;;;;6.98;100.00;62721.16;4964747;29;20462;-76
2022/10/06 04:32:24;;;;;;;4.60;4.30;;;;;;;6.91;100.00;62711.94;4963884;29;20220;-77
2022/10/06 04:34:51;;;;;;;3.65;3.35;;;;;;;6.96;100.00;62712.03;4963311;29;20219;-76
2022/10/06 04:37:18;;;;;;;3.47;3.25;;;;;;;6.94;100.00;62715.03;4962831;28;20237;-75
2022/10/06 04:39:45;;;;;;;4.28;3.90;;;;;;;6.90;100.00;62715.44;4961836;29;20260;-74
2022/10/06 04:42:12;;;;;;;8.48;6.28;;;;;;;6.89;100.00;62709.34;4962304;29;20236;-75
2022/10/06 04:44:39;;;;;;;9.35;6.72;;;;;;;6.87;100.00;62707.28;4963117;29;20208;-76
2022/10/06 04:47:07;;;;;;;9.50;6.43;;;;;;;6.87;100.00;62707.81;4961190;28;20292;-74
2022/10/06 04:49:33;;;;;;;9.13;6.03;;;;;;;6.84;100.00;62704.72;4965020;29;20216;-74
2022/10/06 04:52:00;;;;;;;4.57;4.13;;;;;;;6.84;100.00;62701.66;4964499;28;20433;-73
2022/10/06 04:54:27;;;;;;;6.57;4.50;;;;;;;6.87;100.00;62705.28;4964048;29;20201;-74
2022/10/06 04:56:55;;;;;;;9.00;3.22;;;;;;;6.84;100.00;62706.72;4959820;28;20498;-74
2022/10/06 05:00:21;;;;;;;4.57;4.22;;;;;;;6.84;100.00;62704.19;4965196;29;20502;-73
2022/10/06 05:02:10;;;;;;;7.22;5.80;;;;;;;6.88;100.00;62710.84;4962931;29;20402;-74
2022/10/06 05:04:38;;;;;;;7.60;5.35;;;;;;;6.93;100.00;62716.00;4962789;28;20205;-73
2022/10/06 05:07:04;;;;;;;6.85;5.68;;;;;;;6.97;100.00;62720.66;4964007;28;20242;-75
2022/10/06 05:09:31;;;;;;;5.47;4.80;;;;;;;6.98;100.00;62721.16;4964591;29;20201;-73
2022/10/06 05:11:58;;;;;;;5.70;5.20;;;;;;;7.08;100.00;62728.94;4967778;28;20228;-75
2022/10/06 05:14:25;;;;;;;6.25;5.55;;;;;;;7.10;100.00;62727.97;4964803;29;20205;-74
2022/10/06 05:16:52;;;;;;;6.68;5.90;;;;;;;7.10;100.00;62731.00;4960517;28;20243;-73
2022/10/06 05:19:20;;;;;;;9.60;5.70;;;;;;;7.15;100.00;62738.19;4964673;29;20209;-74
2022/10/06 05:21:47;;;;;;;7.50;6.03;;;;;;;7.21;100.00;62741.84;4967327;29;20264;-73
2022/10/06 05:24:14;;;;;;;9.15;6.78;;;;;;;7.09;100.00;62735.06;4956812;29;20205;-73
2022/10/06 05:26:40;;;;;;;7.78;6.30;;;;;;;7.24;100.00;62744.94;4948821;28;20279;-74
2022/10/06 05:29:07;;;;;;;9.90;6.35;;;;;;;7.32;100.00;62758.78;4959732;29;20290;-75
2022/10/06 05:31:37;;;;;;;8.77;7.32;;;;;;;7.45;100.00;62764.09;4964882;29;20249;-75
2022/10/06 05:34:04;;;;;;;7.40;6.63;;;;;;;7.59;100.00;62784.09;4965991;29;20273;-77
2022/10/06 05:36:33;;;;;;;9.85;6.15;;;;;;;7.69;100.00;62789.38;4964146;29;20221;-76
2022/10/06 05:39:00;;;;;;;11.63;7.30;;;;;;;7.85;100.00;62807.91;4967852;28;20265;-76
2022/10/06 05:41:29;;;;;;;7.82;7.03;;;;;;;8.01;100.00;62829.50;4969597;29;20197;-77
2022/10/06 05:43:57;;;;;;;9.68;7.22;;;;;;;8.18;100.00;62841.97;4969459;28;20224;-77
2022/10/06 05:46:27;;;;;;;8.77;7.50;;;;;;;8.32;100.00;62856.47;4965099;29;20275;-77
2022/10/06 05:48:55;;;;;;;11.57;7.18;;;;;;;8.48;100.00;62872.47;4967963;28;20246;-77
2022/10/06 05:51:24;;;;;;;6.20;5.63;;;;;;;8.66;100.00;62888.53;4968220;29;20260;-79
2022/10/06 05:53:52;;;;;;;8.57;5.47;;;;;;;8.84;100.00;62912.72;4963739;28;20395;-77
2022/10/06 05:56:21;;;;;;;7.05;5.57;;;;;;;9.00;100.00;62929.28;4963732;29;20496;-76
2022/10/06 05:58:50;;;;;;;6.95;5.07;;;;;;;9.10;100.00;62936.53;4968708;28;20224;-78
2022/10/06 06:01:19;;;;;;;6.57;5.18;;;;;;;9.05;100.00;62931.91;4967567;29;20227;-77
2022/10/06 06:03:48;;;;;;;4.65;4.25;;;;;;;9.13;100.00;62942.69;4963847;29;20228;-76
2022/10/06 06:06:17;;;;;;;5.95;5.35;;;;;;;9.15;100.00;62941.72;4954579;29;20236;-78
2022/10/06 06:08:44;;;;;;;5.55;5.05;;;;;;;9.31;100.00;62960.78;4962918;29;20605;-76
2022/10/06 06:11:13;;;;;;;7.68;4.78;;;;;;;9.46;100.00;62976.28;4965653;29;20201;-77
2022/10/06 06:13:40;;;;;;;5.57;5.03;;;;;;;9.53;100.00;62980.47;4964222;28;20245;-78
2022/10/06 06:16:07;;;;;;;9.50;5.95;;;;;;;9.58;100.00;62988.19;4964352;28;20201;-77
2022/10/06 06:18:36;;;;;;;8.07;5.22;;;;;;;9.60;100.00;62988.22;4964908;28;20312;-77
2022/10/06 06:21:05;;;;;;;8.25;5.05;;;;;;;9.54;100.00;62984.59;4963730;28;20213;-77
2022/10/06 06:23:34;;;;;;;8.18;4.80;;;;;;;9.54;100.00;62979.50;4968260;28;20247;-76
2022/10/06 06:26:04;;;;;;;6.55;5.57;;;;;;;9.65;100.00;62990.34;4971520;28;20269;-76
2022/10/06 06:28:34;;;;;;;5.32;4.75;;;;;;;9.77;100.00;63008.34;4962654;29;20240;-77
2022/10/06 06:31:02;;;;;;;9.93;5.65;;;;;;;9.87;100.00;63013.63;4963700;29;20243;-75
2022/10/06 06:33:30;;;;;;;7.28;5.25;;;;;;;9.95;100.00;63024.44;4966427;28;20221;-75
2022/10/06 06:36:02;;;;;;;9.55;6.03;;;;;;;9.98;100.00;63027.00;4964639;29;20200;-75
2022/10/06 06:38:29;;;;;;;7.93;5.75;;;;;;;10.05;100.00;63034.25;4946117;29;20276;-75
2022/10/06 06:40:56;;;;;;;9.55;5.60;;;;;;;10.02;100.00;63036.25;4952201;28;20260;-76
2022/10/06 06:43:23;;;;;;;12.27;5.07;;;;;;;10.04;100.00;63033.22;4956173;28;20264;-75
2022/10/06 06:45:51;;;;;;;7.15;5.13;;;;;;;10.20;100.00;63050.31;4965974;29;20223;-75
2022/10/06 06:48:18;;;;;;;5.18;4.63;;;;;;;10.27;100.00;63060.09;4959784;28;20263;-75
2022/10/06 06:50:45;;;;;;;4.30;3.90;;;;;;;10.37;100.00;63070.44;4953989;29;20205;-75
2022/10/06 06:53:14;;;;;;;6.53;4.10;;;;;;;10.24;100.00;63054.47;4964721;29;20220;-74
2022/10/06 06:55:49;;;;;;;4.85;4.43;;;;;;;10.28;100.00;63058.59;4958676;29;20407;-75
2022/10/06 06:58:17;;;;;;;6.22;4.43;;;;;;;10.33;100.00;63066.31;4953889;29;20383;-74
2022/10/06 07:00:44;;;;;;;6.70;5.63;;;;;;;10.25;100.00;63054.97;4960819;29;20205;-73
2022/10/06 07:03:15;;;;;;;9.60;4.28;;;;;;;10.27;100.00;63060.09;4962929;28;20229;-76
2022/10/06 07:05:43;;;;;;;4.78;4.38;;;;;;;10.23;100.00;63058.00;4962357;28;20216;-74
2022/10/06 07:08:10;;;;;;;5.13;3.85;;;;;;;10.42;100.00;63077.66;4961426;28;20268;-74
2022/10/06 07:10:38;;;;;;;4.47;4.07;;;;;;;10.58;100.00;63091.66;4963963;29;20231;-75
2022/10/06 07:13:05;;;;;;;3.13;2.97;;;;;;;10.82;100.00;63110.91;4962268;29;20216;-74
2022/10/06 07:26:34;;;;;;;5.22;4.10;;;;;;;11.11;100.00;63138.38;4962501;28;20231;-75
2022/10/06 07:29:01;;;;;;;5.05;3.78;;;;;;;11.14;98.57;63149.13;4964132;28;20252;-74
2022/10/06 07:31:32;;;;;;;8.25;4.32;;;;;;;11.24;98.90;63156.94;4966287;29;20218;-74
2022/10/06 07:34:01;;;;;;;6.78;3.88;;;;;;;11.34;97.92;63164.75;4963723;29;20220;-75
2022/10/06 07:36:28;;;;;;;6.55;4.22;;;;;;;11.27;97.77;63160.56;4965171;28;20275;-74
2022/10/06 07:38:55;;;;;;;5.90;3.65;;;;;;;11.36;98.72;63169.38;4959939;29;20217;-75
2022/10/06 07:41:23;;;;;;;6.53;3.38;;;;;;;11.59;98.24;63195.75;4958331;29;20225;-75
2022/10/06 07:43:52;;;;;;;4.43;3.30;;;;;;;11.75;96.68;63209.81;4958764;28;20213;-74
2022/10/06 07:46:19;;;;;;;3.78;3.42;;;;;;;11.94;95.52;63231.50;4965390;29;20205;-75
2022/10/06 07:48:48;;;;;;;6.72;3.03;;;;;;;11.82;94.59;63217.03;4965894;29;20272;-75
2022/10/06 07:51:18;;;;;;;6.75;3.03;;;;;;;11.97;95.48;63232.59;4957590;29;20397;-75
2022/10/06 07:53:48;;;;;;;2.80;2.70;;;;;;;12.08;94.50;63246.53;4964850;28;20255;-75
2022/10/06 07:56:19;;;;;;;2.53;2.42;;;;;;;12.17;93.07;63257.91;4966952;28;20196;-75
2022/10/06 07:58:46;;;;;;;3.40;3.20;;;;;;;12.20;92.00;63256.41;4962131;28;20225;-75
2022/10/06 08:01:14;;;;;;;9.38;3.58;;;;;;;12.25;91.86;63261.09;4964975;29;20258;-75
2022/10/06 08:03:42;;;;;;;3.75;3.40;;;;;;;12.29;90.85;63263.19;4963300;29;20224;-76
2022/10/06 08:06:14;;;;;;;3.63;3.33;;;;;;;12.30;91.04;63261.16;4968665;29;20248;-75
2022/10/06 08:08:43;;;;;;;7.90;3.95;;;;;;;12.35;91.50;63274.00;4963611;28;20246;-75
2022/10/06 08:11:11;;;;;;;4.07;3.67;;;;;;;12.60;91.63;63297.38;4962546;29;20213;-74
2022/10/06 08:13:39;;;;;;;3.78;3.47;;;;;;;12.78;88.45;63319.13;4961401;28;20268;-74
2022/10/06 08:16:07;;;;;;;4.30;3.60;;;;;;;12.97;87.13;63332.66;4955718;29;20216;-75
2022/10/06 08:18:34;;;;;;;5.88;4.15;;;;;;;13.12;85.93;63350.78;4957260;28;20220;-75
2022/10/06 08:21:08;;;;;;;3.80;3.50;;;;;;;13.23;85.16;63362.22;4961784;29;20295;-74
2022/10/06 08:23:38;;;;;;;4.95;4.40;;;;;;;13.35;84.41;63377.22;4965338;28;20592;-74
2022/10/06 08:26:07;;;;;;;6.53;4.35;;;;;;;13.30;84.91;63372.03;4963770;28;20201;-75
2022/10/06 08:28:34;;;;;;;7.97;4.78;;;;;;;13.24;84.68;63366.31;4963249;29;20295;-75
2022/10/06 08:31:04;;;;;;;4.80;4.40;;;;;;;13.21;85.58;63363.22;4963821;29;20201;-74
2022/10/06 08:33:31;;;;;;;5.05;3.70;;;;;;;13.33;84.40;63377.69;4961960;29;20259;-75
2022/10/06 08:36:02;;;;;;;6.28;4.47;;;;;;;13.56;85.11;63394.41;4961227;29;20528;-76
2022/10/06 08:38:30;;;;;;;4.10;3.75;;;;;;;13.69;83.45;63413.03;4968601;28;20225;-75
2022/10/06 08:40:57;;;;;;;4.65;4.03;;;;;;;13.59;82.74;63404.69;4966499;29;20208;-74
2022/10/06 08:43:27;;;;;;;13.45;3.83;;;;;;;13.74;82.14;63410.53;4965454;29;20236;-75
2022/10/06 08:45:59;;;;;;;5.30;3.75;;;;;;;13.80;77.53;63418.81;4962226;29;20206;-76
2022/10/06 08:48:35;;;;;;;3.80;3.45;;;;;;;13.65;78.05;63410.91;4965864;28;20232;-76
2022/10/06 08:51:17;;;;;;;4.05;3.72;;;;;;;13.71;79.15;63414.56;4966306;29;20204;-75
2022/10/06 08:53:55;;;;;;;4.35;4.03;;;;;;;14.00;78.51;63444.16;4964272;29;20234;-74
2022/10/06 08:56:26;;;;;;;8.88;4.25;;;;;;;13.91;77.59;63435.34;4955370;29;20489;-77
2022/10/06 08:58:56;;;;;;;11.32;4.45;;;;;;;14.15;78.25;63460.25;4960583;29;20256;-76
2022/10/06 09:01:25;;;;;;;6.13;4.80;;;;;;;14.21;78.08;63471.09;4958529;29;20292;-74
2022/10/06 09:03:56;;;;;;;4.50;4.10;;;;;;;14.27;77.44;63472.22;4967628;28;20225;-76
2022/10/06 09:06:38;;;;;;;6.18;5.00;;;;;;;14.43;76.71;63489.34;4964779;29;20534;-76
2022/10/06 09:09:14;;;;;;;8.32;4.70;;;;;;;14.70;74.06;63517.38;4953830;29;20220;-75
2022/10/06 09:11:52;;;;;;;7.10;4.90;;;;;;;14.96;75.27;63546.47;4964845;28;20209;-77
2022/10/06 09:14:25;;;;;;;10.38;4.88;;;;;;;15.27;73.12;63578.16;4963290;29;20208;-78
2022/10/06 09:16:59;;;;;;;7.22;5.05;;;;;;;15.44;70.13;63591.22;4965494;28;20208;-77
2022/10/06 09:19:36;;;;;;;5.55;4.57;;;;;;;15.39;67.07;63586.00;4970574;28;20211;-76
2022/10/06 09:22:10;;;;;;;5.65;4.45;;;;;;;15.30;68.75;63576.66;4956589;28;20521;-78
2022/10/06 09:24:41;;;;;;;4.78;4.38;;;;;;;15.65;68.51;63612.53;4964789;29;20504;-76
2022/10/06 09:27:17;;;;;;;7.70;5.30;;;;;;;15.70;65.38;63620.81;4965084;28;20256;-75
2022/10/06 09:29:47;;;;;;;5.22;4.72;;;;;;;15.65;66.40;63615.09;4962698;29;20247;-75
2022/10/06 09:32:14;;;;;;;5.57;4.75;;;;;;;15.68;65.94;63618.22;4965568;28;20283;-76
2022/10/06 09:34:46;;;;;;;8.57;5.40;;;;;;;15.58;66.36;63605.25;4966958;29;20248;-75
2022/10/06 09:37:14;;;;;;;10.20;5.95;;;;;;;15.70;65.63;63617.72;4964541;28;20224;-75
2022/10/06 09:39:43;;;;;;;8.05;5.95;;;;;;;15.58;65.10;63610.41;4949993;29;20201;-74
2022/10/06 09:42:18;;;;;;;12.30;5.80;;;;;;;15.52;65.75;63601.56;4962247;28;20271;-76
2022/10/06 09:44:57;;;;;;;11.30;4.88;;;;;;;15.66;65.79;63616.13;4967287;29;20206;-76
2022/10/06 09:47:43;;;;;;;9.20;5.65;;;;;;;15.61;67.01;63616.06;4961788;29;20255;-77
2022/10/06 09:50:15;;;;;;;11.05;4.80;;;;;;;15.84;66.07;63632.28;4966365;28;20232;-76
2022/10/06 09:52:43;;;;;;;5.35;4.85;;;;;;;15.91;66.27;63642.66;4958385;29;20217;-77
2022/10/06 09:55:13;;;;;;;5.03;4.50;;;;;;;16.13;65.45;63662.94;4964024;29;20200;-77
2022/10/06 09:57:49;;;;;;;7.75;4.88;;;;;;;16.42;62.10;63694.66;4958481;28;20224;-78
2022/10/06 10:00:35;;;;;;;8.77;5.38;;;;;;;16.40;62.87;63687.94;4958763;29;20218;-77
2022/10/06 10:03:04;;;;;;;13.77;7.78;;;;;;;16.27;59.10;63679.06;4967039;29;20278;-76
2022/10/06 10:05:33;;;;;;;9.57;5.63;;;;;;;16.34;58.95;63683.78;4965891;29;20264;-78
2022/10/06 10:08:08;;;;;;;6.40;4.95;;;;;;;16.42;58.77;63695.19;4966619;29;20239;-78
2022/10/06 10:10:36;;;;;;;8.13;4.53;;;;;;;16.53;58.52;63706.13;4956329;29;20267;-77
2022/10/06 10:13:16;;;;;;;8.20;4.78;;;;;;;16.32;59.04;63681.69;4947122;29;20221;-76
2022/10/06 10:15:55;;;;;;;6.10;5.15;;;;;;;16.27;58.76;63676.47;4958396;29;20399;-76
2022/10/06 10:18:26;;;;;;;6.13;4.63;;;;;;;16.29;58.48;63684.22;4963753;28;20224;-77
2022/10/06 10:20:56;;;;;;;9.55;4.95;;;;;;;16.35;58.42;63687.91;4964055;29;20216;-77
2022/10/06 10:23:28;;;;;;;6.55;5.35;;;;;;;16.53;57.58;63706.63;4962110;28;20224;-77
2022/10/06 10:26:17;;;;;;;8.13;5.55;;;;;;;16.62;58.74;63715.50;4961627;29;20204;-76
2022/10/06 10:29:18;;;;;;;6.97;6.25;;;;;;;16.64;56.56;63717.56;4969724;28;20235;-77
2022/10/06 10:32:03;;;;;;;8.02;5.80;;;;;;;16.83;57.13;63734.75;4971301;28;20204;-77
2022/10/06 10:34:51;;;;;;;10.43;4.80;;;;;;;16.77;56.02;63733.66;4965540;28;20489;-77
2022/10/06 10:37:25;;;;;;;9.52;5.03;;;;;;;16.51;56.87;63701.47;4966352;29;20287;-77
2022/10/06 10:39:56;;;;;;;12.60;6.05;;;;;;;16.66;56.90;63720.16;4967008;29;20517;-77
2022/10/06 10:42:29;;;;;;;13.15;5.00;;;;;;;16.77;56.12;63733.66;4965437;29;20220;-76
2022/10/06 10:45:00;;;;;;;10.18;4.93;;;;;;;17.15;53.33;63775.78;4967625;29;20441;-75
2022/10/06 10:47:33;;;;;;;5.80;4.65;;;;;;;17.42;51.02;63795.66;4965510;29;20238;-76
2022/10/06 10:50:06;;;;;;;8.02;5.47;;;;;;;17.67;52.21;63822.22;4967243;29;20227;-77
2022/10/06 10:52:39;;;;;;;5.63;5.07;;;;;;;17.79;51.44;63839.88;4956802;29;20223;-77
2022/10/06 10:55:19;;;;;;;5.70;3.70;;;;;;;17.99;49.02;63855.03;4965010;29;20220;-76
2022/10/06 10:57:47;;;;;;;6.13;4.20;;;;;;;18.06;48.68;63864.91;4964514;29;20259;-77
2022/10/06 11:00:19;;;;;;;7.57;4.68;;;;;;;17.56;47.46;63807.66;4966035;29;20275;-76
2022/10/06 11:02:48;;;;;;;6.15;3.83;;;;;;;17.33;48.21;63792.47;4951302;29;20228;-77
2022/10/06 11:05:25;;;;;;;7.47;4.25;;;;;;;17.66;46.68;63821.19;4962095;28;20203;-77
2022/10/06 11:08:00;;;;;;;4.43;3.65;;;;;;;17.88;45.43;63846.66;4986502;28;20238;-78
2022/10/06 11:10:31;;;;;;;6.82;3.85;;;;;;;18.08;43.97;63862.34;4965226;28;20211;-77
2022/10/06 11:13:14;;;;;;;10.73;4.50;;;;;;;18.03;44.67;63861.78;4966555;28;20241;-77
2022/10/06 11:15:52;;;;;;;7.13;3.33;;;;;;;18.10;41.54;63866.50;4966737;29;20200;-77
2022/10/06 11:18:30;;;;;;;4.28;3.88;;;;;;;18.47;43.32;63905.06;4952713;29;20219;-78
2022/10/06 11:21:02;;;;;;;4.68;3.22;;;;;;;18.81;42.09;63939.97;4967267;29;20222;-76
2022/10/06 11:23:50;;;;;;;7.35;3.45;;;;;;;18.90;42.24;63949.88;4967744;28;20224;-77
2022/10/06 11:26:34;;;;;;;4.15;3.85;;;;;;;19.06;42.99;63971.19;4970812;29;20259;-75
2022/10/06 11:29:12;;;;;;;5.88;3.05;;;;;;;19.03;40.06;63960.84;4965079;29;20243;-76
2022/10/06 11:31:49;;;;;;;3.35;2.85;;;;;;;18.72;38.67;63931.13;4960732;28;20200;-75
2022/10/06 11:34:17;;;;;;;2.88;2.50;;;;;;;18.56;36.67;63919.59;4963461;29;20200;-77
2022/10/06 11:36:53;;;;;;;7.25;1.77;;;;;;;18.84;35.05;63948.25;4964442;29;20227;-77
2022/10/06 11:39:23;;;;;;;1.70;1.60;;;;;;;19.04;35.58;63967.03;4962525;29;20255;-76
2022/10/06 11:41:58;;;;;;;1.40;1.40;;;;;;;19.25;36.57;63985.84;4962659;28;20207;-77
2022/10/06 11:44:31;;;;;;;1.73;1.15;;;;;;;19.43;32.62;64004.63;4961609;29;20199;-78
2022/10/06 11:47:03;;;;;;;1.08;1.05;;;;;;;19.66;33.17;64033.78;4966199;29;20266;-76
2022/10/06 11:49:51;;;;;;;4.03;2.25;;;;;;;19.90;35.34;64053.13;4964942;29;20242;-77
2022/10/06 11:52:55;;;;;;;2.33;1.90;;;;;;;19.76;34.69;64041.63;4947169;29;20220;-77
2022/10/06 11:55:25;;;;;;;2.25;1.80;;;;;;;20.05;34.73;64073.94;4962924;29;20227;-76